Time;durP1;ratioP1;P1;durP2;ratioP2;P2;SDS_P1;SDS_P2;PMS_P1;PMS_P2;Temp;Humidity;BMP_temperature;BMP_pressure;BME280_temperature;BME280_humidity;BME280_pressure;Samples;Min_cycle;Max_cycle;Signal;HPM_P1;HPM_P2
2023/06/21 00:00:36;;;;;;;13.70;12.70;;;22.30;99.90;;;;;;4970082;28;20475;-69
2023/06/21 00:03:04;;;;;;;15.20;13.90;;;22.00;99.90;;;;;;4979765;28;20187;-69
2023/06/21 00:05:30;;;;;;;12.83;11.83;;;22.00;99.90;;;;;;4973356;28;20189;-69
2023/06/21 00:07:55;;;;;;;14.27;13.03;;;22.00;99.90;;;;;;4971412;28;20907;-69
2023/06/21 00:10:24;;;;;;;14.23;13.03;;;21.90;99.90;;;;;;4976819;28;20570;-69
2023/06/21 00:12:50;;;;;;;14.93;13.73;;;22.00;99.90;;;;;;4987153;28;20672;-69
2023/06/21 00:15:16;;;;;;;14.37;12.80;;;21.80;99.90;;;;;;4986248;28;20438;-69
2023/06/21 00:17:41;;;;;;;14.40;13.10;;;21.60;99.90;;;;;;4976455;28;20779;-69
2023/06/21 00:20:09;;;;;;;14.33;13.23;;;21.60;99.90;;;;;;4979299;28;20206;-69
2023/06/21 00:22:35;;;;;;;15.17;13.77;;;21.60;99.90;;;;;;4975616;28;20184;-69
2023/06/21 00:25:02;;;;;;;14.43;13.23;;;21.40;99.90;;;;;;4984354;28;20452;-69
2023/06/21 00:27:27;;;;;;;15.40;14.07;;;21.60;99.90;;;;;;4976878;28;20870;-69
2023/06/21 00:29:53;;;;;;;15.37;13.87;;;21.60;99.90;;;;;;4974427;28;20459;-69
2023/06/21 00:32:18;;;;;;;15.20;13.70;;;21.70;99.90;;;;;;4980263;28;20185;-70
2023/06/21 00:34:46;;;;;;;14.67;13.30;;;21.90;99.90;;;;;;4973422;28;20188;-70
2023/06/21 00:37:15;;;;;;;15.03;13.57;;;22.00;99.90;;;;;;4971428;28;20712;-69
2023/06/21 00:39:40;;;;;;;15.00;13.70;;;22.10;99.90;;;;;;4982814;28;20533;-69
2023/06/21 00:42:07;;;;;;;14.47;12.97;;;22.10;99.90;;;;;;4983282;28;20873;-69
2023/06/21 00:44:33;;;;;;;15.63;14.13;;;22.00;99.90;;;;;;4985461;28;20187;-69
2023/06/21 00:46:58;;;;;;;15.80;14.30;;;21.90;99.90;;;;;;4975081;28;20930;-69
2023/06/21 00:49:24;;;;;;;14.57;13.27;;;21.70;99.90;;;;;;4968043;28;20216;-69
2023/06/21 00:52:00;;;;;;;14.53;13.30;;;21.70;99.90;;;;;;4982412;28;20185;-69
2023/06/21 00:54:30;;;;;;;15.10;13.90;;;21.80;99.90;;;;;;4985095;28;20447;-69
2023/06/21 00:56:58;;;;;;;15.70;14.20;;;21.90;99.90;;;;;;4982473;28;21014;-69
2023/06/21 00:59:27;;;;;;;16.03;14.40;;;21.90;99.90;;;;;;4989024;28;20462;-70
2023/06/21 01:01:55;;;;;;;15.70;14.07;;;21.80;99.90;;;;;;4979358;28;20446;-69
2023/06/21 01:04:21;;;;;;;17.30;15.90;;;21.70;99.90;;;;;;4969518;28;20442;-69
2023/06/21 01:07:04;;;;;;;16.70;15.23;;;21.50;99.90;;;;;;4969940;28;20509;-69
2023/06/21 01:10:08;;;;;;;14.67;13.37;;;21.50;99.90;;;;;;4957505;28;20485;-70
2023/06/21 01:13:04;;;;;;;16.30;14.90;;;21.40;99.90;;;;;;4971146;28;20565;-69
2023/06/21 01:15:38;;;;;;;14.20;12.90;;;21.20;99.90;;;;;;4971468;28;20442;-69
2023/06/21 01:18:06;;;;;;;16.20;14.80;;;21.20;99.90;;;;;;4975108;28;20828;-69
2023/06/21 01:20:34;;;;;;;16.10;14.50;;;21.20;99.90;;;;;;4975296;28;20448;-69
2023/06/21 01:23:10;;;;;;;15.63;14.20;;;21.30;99.90;;;;;;4975377;28;20443;-69
2023/06/21 01:26:06;;;;;;;14.77;13.57;;;21.30;99.90;;;;;;4964720;28;20797;-69
2023/06/21 01:29:01;;;;;;;14.10;12.77;;;21.10;99.90;;;;;;4974644;28;20491;-69
2023/06/21 01:31:27;;;;;;;18.40;16.53;;;21.10;99.90;;;;;;4969298;28;20847;-70
2023/06/21 01:33:54;;;;;;;17.00;15.43;;;21.00;99.90;;;;;;4973937;28;20502;-69
2023/06/21 01:36:21;;;;;;;15.30;13.90;;;21.00;99.90;;;;;;4974421;28;20443;-69
2023/06/21 01:38:47;;;;;;;16.13;14.70;;;21.00;99.90;;;;;;4981559;28;20470;-69
2023/06/21 01:41:12;;;;;;;16.07;14.43;;;21.00;99.90;;;;;;4969609;28;20459;-69
2023/06/21 01:43:38;;;;;;;15.57;14.20;;;21.10;99.90;;;;;;4972236;28;20180;-70
2023/06/21 01:46:06;;;;;;;14.77;13.60;;;21.10;99.90;;;;;;4973996;28;20184;-69
2023/06/21 01:48:34;;;;;;;14.47;13.37;;;21.10;99.90;;;;;;4984079;28;20188;-70
2023/06/21 01:51:03;;;;;;;17.13;15.60;;;21.10;99.90;;;;;;4971967;28;20463;-70
2023/06/21 01:53:33;;;;;;;13.87;12.63;;;21.20;99.90;;;;;;4987790;28;20450;-69
2023/06/21 01:56:01;;;;;;;14.43;13.30;;;21.20;99.90;;;;;;4977333;28;20439;-69
2023/06/21 01:58:28;;;;;;;15.33;14.03;;;21.10;99.90;;;;;;4973645;28;20530;-69
2023/06/21 02:00:56;;;;;;;14.97;13.63;;;21.00;99.90;;;;;;4984303;28;20478;-69
2023/06/21 02:03:22;;;;;;;15.73;14.63;;;20.90;99.90;;;;;;4984937;28;20960;-70
2023/06/21 02:05:49;;;;;;;14.90;13.40;;;21.00;99.90;;;;;;4980551;28;20832;-69
2023/06/21 02:08:18;;;;;;;16.67;14.60;;;21.00;99.90;;;;;;4969373;28;20480;-69
2023/06/21 02:10:46;;;;;;;15.37;13.97;;;21.00;99.90;;;;;;4966090;28;20556;-69
2023/06/21 02:13:14;;;;;;;15.17;13.97;;;20.90;99.90;;;;;;4973208;28;20440;-69
2023/06/21 02:15:43;;;;;;;15.10;13.60;;;20.80;99.90;;;;;;4968557;28;20444;-70
2023/06/21 02:18:09;;;;;;;15.30;14.00;;;20.80;99.90;;;;;;4975114;28;20542;-70
2023/06/21 02:20:35;;;;;;;15.20;13.67;;;20.80;99.90;;;;;;4964331;28;20463;-69
2023/06/21 02:23:01;;;;;;;16.70;15.20;;;20.90;99.90;;;;;;4971751;28;20518;-70
2023/06/21 02:25:28;;;;;;;17.30;15.90;;;20.90;99.90;;;;;;4970525;28;20597;-70
2023/06/21 02:27:53;;;;;;;14.50;13.10;;;20.80;99.90;;;;;;4969414;28;20184;-69
2023/06/21 02:30:19;;;;;;;15.93;14.50;;;20.70;99.90;;;;;;4972669;28;20859;-69
2023/06/21 02:32:44;;;;;;;15.20;13.73;;;20.80;99.90;;;;;;4969352;28;20192;-69
2023/06/21 02:35:10;;;;;;;16.83;15.23;;;20.90;99.90;;;;;;4972144;28;20191;-70
2023/06/21 02:37:36;;;;;;;16.77;15.03;;;20.70;99.90;;;;;;4969397;28;20192;-70
2023/06/21 02:40:11;;;;;;;15.17;13.97;;;20.60;99.90;;;;;;4962315;28;20219;-69
2023/06/21 02:42:37;;;;;;;16.23;14.80;;;20.60;99.90;;;;;;4966798;28;20430;-70
2023/06/21 02:45:03;;;;;;;14.77;13.67;;;20.60;99.90;;;;;;4968023;28;20782;-69
2023/06/21 02:47:29;;;;;;;15.20;14.03;;;20.60;99.90;;;;;;4966833;28;20705;-69
2023/06/21 02:49:55;;;;;;;16.63;15.13;;;20.70;99.90;;;;;;4969836;28;20196;-70
2023/06/21 02:52:20;;;;;;;14.90;13.57;;;20.60;99.90;;;;;;4961836;28;20800;-70
2023/06/21 02:54:46;;;;;;;16.10;14.70;;;20.50;99.90;;;;;;4967978;28;20184;-70
2023/06/21 02:57:11;;;;;;;15.60;14.30;;;20.50;99.90;;;;;;4972791;28;20180;-69
2023/06/21 02:59:37;;;;;;;15.20;13.90;;;20.60;99.90;;;;;;4965632;28;20776;-70
2023/06/21 03:02:03;;;;;;;15.93;14.37;;;20.70;99.90;;;;;;4969315;28;20178;-69
2023/06/21 03:04:28;;;;;;;14.77;13.37;;;20.80;99.90;;;;;;4968890;28;20235;-69
2023/06/21 03:06:54;;;;;;;16.30;14.60;;;20.70;99.90;;;;;;4969498;28;20181;-70
2023/06/21 03:09:19;;;;;;;16.43;14.90;;;20.70;99.90;;;;;;4968684;28;20274;-69
2023/06/21 03:11:46;;;;;;;15.77;14.53;;;20.70;99.90;;;;;;4965483;28;20264;-70
2023/06/21 03:14:12;;;;;;;15.80;14.50;;;20.60;99.90;;;;;;4967323;28;20244;-70
2023/06/21 03:16:38;;;;;;;14.53;13.10;;;20.60;99.90;;;;;;4968400;28;20444;-70
2023/06/21 03:19:04;;;;;;;15.83;14.57;;;20.60;99.90;;;;;;4963908;28;20243;-70
2023/06/21 03:21:29;;;;;;;14.53;13.33;;;20.70;99.90;;;;;;4971869;28;20486;-70
2023/06/21 03:23:55;;;;;;;14.80;13.60;;;20.80;99.90;;;;;;4971589;28;20176;-70
2023/06/21 03:26:20;;;;;;;14.63;13.47;;;20.90;99.90;;;;;;4966337;28;20185;-69
2023/06/21 03:28:46;;;;;;;16.97;14.50;;;20.90;99.90;;;;;;4966769;28;20195;-70
2023/06/21 03:31:11;;;;;;;15.70;14.40;;;21.00;99.90;;;;;;4977807;28;20222;-69
2023/06/21 03:33:37;;;;;;;15.33;13.83;;;20.90;99.90;;;;;;4961276;28;20220;-70
2023/06/21 03:36:05;;;;;;;15.03;13.83;;;21.00;99.90;;;;;;4971100;28;20191;-69
2023/06/21 03:38:31;;;;;;;15.80;14.33;;;20.90;99.90;;;;;;4969342;28;20212;-69
2023/06/21 03:40:56;;;;;;;15.77;14.13;;;20.80;99.90;;;;;;4967716;28;20590;-70
2023/06/21 03:43:22;;;;;;;15.67;13.90;;;20.80;99.90;;;;;;4968692;28;20279;-70
2023/06/21 03:45:47;;;;;;;15.87;14.40;;;20.90;99.90;;;;;;4967699;28;20206;-70
2023/06/21 03:48:13;;;;;;;13.83;12.63;;;21.00;99.90;;;;;;4964283;28;20196;-69
2023/06/21 03:50:38;;;;;;;16.30;14.80;;;21.00;99.90;;;;;;4967233;28;20335;-70
2023/06/21 03:53:04;;;;;;;18.07;16.00;;;21.10;99.90;;;;;;4969241;28;20228;-69
2023/06/21 03:55:29;;;;;;;15.93;14.73;;;20.60;99.90;;;;;;4968437;28;20205;-69
2023/06/21 03:57:55;;;;;;;15.67;14.33;;;20.30;99.90;;;;;;4973829;28;20204;-68
2023/06/21 04:00:20;;;;;;;13.90;12.80;;;20.10;99.90;;;;;;4964174;28;20204;-71
2023/06/21 04:02:46;;;;;;;16.13;14.80;;;20.00;99.90;;;;;;4977160;28;20187;-68
2023/06/21 04:05:11;;;;;;;18.67;16.77;;;20.00;99.90;;;;;;4978663;28;20183;-71
2023/06/21 04:07:40;;;;;;;17.70;15.90;;;20.10;99.90;;;;;;4976345;28;20176;-69
2023/06/21 04:10:08;;;;;;;15.97;14.67;;;19.90;99.90;;;;;;4973557;28;20208;-69
2023/06/21 04:12:34;;;;;;;18.20;16.63;;;20.00;99.90;;;;;;4975316;28;20434;-69
2023/06/21 04:15:00;;;;;;;17.67;15.47;;;20.00;99.90;;;;;;4975168;28;20498;-69
2023/06/21 04:17:27;;;;;;;19.80;17.80;;;19.90;99.90;;;;;;4971771;28;20183;-69
2023/06/21 04:19:55;;;;;;;19.00;17.20;;;20.00;99.90;;;;;;4976081;28;20538;-69
2023/06/21 04:22:23;;;;;;;17.37;16.07;;;20.00;99.90;;;;;;4981444;28;20949;-70
2023/06/21 04:24:49;;;;;;;17.90;16.10;;;20.00;99.90;;;;;;4959167;28;20515;-69
2023/06/21 04:27:14;;;;;;;18.97;17.37;;;20.00;99.90;;;;;;4969059;28;20427;-68
2023/06/21 04:29:40;;;;;;;19.40;17.30;;;19.90;99.90;;;;;;4980870;28;20803;-69
2023/06/21 04:32:08;;;;;;;19.87;16.70;;;19.80;99.90;;;;;;4966982;28;20176;-69
2023/06/21 04:34:34;;;;;;;18.20;16.70;;;19.70;99.90;;;;;;4977331;28;20230;-68
2023/06/21 04:37:05;;;;;;;19.00;17.20;;;19.80;99.90;;;;;;4969894;28;20437;-70
2023/06/21 04:39:31;;;;;;;18.50;16.70;;;19.90;99.90;;;;;;4974129;28;20211;-67
2023/06/21 04:41:58;;;;;;;21.40;19.50;;;20.00;99.90;;;;;;4987729;28;20438;-69
2023/06/21 04:44:23;;;;;;;16.97;15.40;;;20.00;99.90;;;;;;4981176;28;20444;-69
2023/06/21 04:46:49;;;;;;;17.67;16.10;;;20.10;99.90;;;;;;4976116;28;20999;-69
2023/06/21 04:49:17;;;;;;;18.73;17.20;;;20.20;99.90;;;;;;4970834;28;20204;-68
2023/06/21 04:51:43;;;;;;;19.27;17.30;;;20.20;99.90;;;;;;4975121;28;20549;-67
2023/06/21 04:54:09;;;;;;;17.30;15.67;;;20.20;99.90;;;;;;4971726;28;20463;-68
2023/06/21 04:56:35;;;;;;;17.03;15.77;;;20.40;99.90;;;;;;4980708;28;20215;-67
2023/06/21 04:59:03;;;;;;;18.43;16.87;;;20.60;99.90;;;;;;4977824;28;20203;-68
2023/06/21 05:01:29;;;;;;;18.60;17.00;;;20.80;99.90;;;;;;4969011;28;20435;-67
2023/06/21 05:03:55;;;;;;;17.23;15.53;;;20.90;99.90;;;;;;4974295;28;20488;-67
2023/06/21 05:06:25;;;;;;;16.13;14.73;;;21.00;99.90;;;;;;4978164;28;20868;-67
2023/06/21 05:08:51;;;;;;;15.47;14.07;;;21.10;99.90;;;;;;4977298;28;20462;-68
2023/06/21 05:11:19;;;;;;;14.83;13.47;;;21.30;99.90;;;;;;4970870;28;20843;-68
2023/06/21 05:13:44;;;;;;;16.53;14.70;;;21.50;99.90;;;;;;4965751;28;20184;-68
2023/06/21 05:16:10;;;;;;;16.87;15.37;;;21.50;99.90;;;;;;4970037;28;20446;-68
2023/06/21 05:18:36;;;;;;;15.73;14.43;;;21.40;99.90;;;;;;4970049;28;20207;-68
2023/06/21 05:21:02;;;;;;;16.20;14.87;;;21.60;99.90;;;;;;4968865;28;20200;-69
2023/06/21 05:23:27;;;;;;;15.57;14.20;;;21.80;99.90;;;;;;4972038;28;20184;-68
2023/06/21 05:25:53;;;;;;;16.00;14.60;;;22.00;99.90;;;;;;4972406;28;20440;-68
2023/06/21 05:28:18;;;;;;;15.83;14.27;;;22.10;99.90;;;;;;4982282;28;20817;-68
2023/06/21 05:30:44;;;;;;;15.60;14.33;;;22.00;99.90;;;;;;4970122;28;20209;-68
2023/06/21 05:33:09;;;;;;;16.00;14.70;;;21.90;99.90;;;;;;4970090;28;20698;-68
2023/06/21 05:35:35;;;;;;;15.83;14.20;;;22.00;99.90;;;;;;5004187;28;20231;-69
2023/06/21 05:38:00;;;;;;;13.00;11.93;;;22.20;99.90;;;;;;4966634;28;20625;-69
2023/06/21 05:40:26;;;;;;;14.93;13.43;;;22.30;99.90;;;;;;4972225;28;20200;-69
2023/06/21 05:42:51;;;;;;;14.90;13.40;;;22.50;99.90;;;;;;4974725;28;20676;-70
2023/06/21 05:45:17;;;;;;;14.87;13.63;;;22.60;99.90;;;;;;4974867;28;20176;-69
2023/06/21 05:47:43;;;;;;;14.53;13.33;;;22.70;99.90;;;;;;4974831;28;20261;-69
2023/06/21 05:50:09;;;;;;;17.17;15.53;;;22.80;99.90;;;;;;4974395;28;20200;-69
2023/06/21 05:52:35;;;;;;;16.83;15.00;;;22.90;99.90;;;;;;4974840;28;20596;-69
2023/06/21 05:55:01;;;;;;;16.63;15.03;;;23.00;99.90;;;;;;4971210;28;20439;-69
2023/06/21 05:57:26;;;;;;;14.50;13.20;;;22.70;99.90;;;;;;4965792;28;20814;-69
2023/06/21 05:59:53;;;;;;;14.83;13.63;;;22.60;99.90;;;;;;4973800;28;20262;-69
2023/06/21 06:02:19;;;;;;;15.63;14.17;;;22.50;99.90;;;;;;4972270;28;20176;-69
2023/06/21 06:04:44;;;;;;;17.20;15.53;;;22.70;99.90;;;;;;4974096;28;20489;-69
2023/06/21 06:07:12;;;;;;;14.97;13.67;;;22.80;99.90;;;;;;4974125;28;20172;-69
2023/06/21 06:09:38;;;;;;;14.43;13.20;;;22.70;99.90;;;;;;4973605;28;20308;-70
2023/06/21 06:12:04;;;;;;;15.90;14.17;;;22.80;99.90;;;;;;4974261;28;20566;-65
2023/06/21 06:14:29;;;;;;;15.80;14.47;;;22.60;99.90;;;;;;4974414;28;20184;-65
2023/06/21 06:16:55;;;;;;;16.83;15.17;;;22.60;99.90;;;;;;4977217;28;21008;-66
2023/06/21 06:19:20;;;;;;;15.30;14.00;;;22.40;99.90;;;;;;4981939;28;20207;-64
2023/06/21 06:21:47;;;;;;;16.40;14.90;;;22.30;99.90;;;;;;4978454;28;20254;-65
2023/06/21 06:24:12;;;;;;;17.20;15.40;;;22.30;99.90;;;;;;4973758;28;20548;-64
2023/06/21 06:26:38;;;;;;;16.57;14.93;;;22.30;99.90;;;;;;4974201;28;20426;-64
2023/06/21 06:29:03;;;;;;;16.13;14.80;;;22.60;99.90;;;;;;4972563;28;20184;-64
2023/06/21 06:31:30;;;;;;;16.40;14.67;;;22.80;99.90;;;;;;4968185;28;20200;-65
2023/06/21 06:33:55;;;;;;;16.33;14.70;;;23.10;99.90;;;;;;4973910;28;20191;-65
2023/06/21 06:36:21;;;;;;;16.33;14.80;;;23.40;99.90;;;;;;4973977;28;20925;-65
2023/06/21 06:38:48;;;;;;;17.20;15.50;;;23.60;99.90;;;;;;5004723;28;20212;-65
2023/06/21 06:41:14;;;;;;;15.83;14.33;;;24.00;99.90;;;;;;4973694;28;20196;-65
2023/06/21 06:43:40;;;;;;;13.70;12.40;;;24.00;99.90;;;;;;4970222;28;20439;-65
2023/06/21 06:46:05;;;;;;;15.80;14.50;;;24.30;99.90;;;;;;4973750;28;20940;-65
2023/06/21 06:48:31;;;;;;;14.57;12.30;;;24.60;99.90;;;;;;4973370;28;20188;-67
2023/06/21 06:50:57;;;;;;;13.37;12.10;;;24.90;99.90;;;;;;4973105;28;20200;-65
2023/06/21 06:53:22;;;;;;;13.10;11.93;;;25.00;99.90;;;;;;4973279;28;20263;-65
2023/06/21 06:55:51;;;;;;;13.30;11.43;;;25.20;99.90;;;;;;4973523;28;20514;-65
2023/06/21 06:58:16;;;;;;;12.77;11.57;;;25.20;99.90;;;;;;4965647;28;20212;-65
2023/06/21 07:00:42;;;;;;;15.03;12.60;;;25.10;99.90;;;;;;4973462;28;20443;-65
2023/06/21 07:03:07;;;;;;;13.30;11.20;;;24.90;99.90;;;;;;4973584;28;20519;-65
2023/06/21 07:05:35;;;;;;;12.13;10.87;;;25.00;99.90;;;;;;4973437;28;20176;-65
2023/06/21 07:08:01;;;;;;;11.63;10.50;;;25.10;99.90;;;;;;4973320;28;20272;-65
2023/06/21 07:10:27;;;;;;;13.67;11.03;;;25.70;99.90;;;;;;4970101;28;20475;-65
2023/06/21 07:12:53;;;;;;;11.53;10.40;;;25.90;99.90;;;;;;4973272;28;20427;-65
2023/06/21 07:15:18;;;;;;;12.17;11.00;;;26.40;99.90;;;;;;4973324;28;20183;-65
2023/06/21 07:17:44;;;;;;;12.00;11.00;;;26.70;99.90;;;;;;4973268;28;20913;-65
2023/06/21 07:20:10;;;;;;;12.20;11.20;;;27.00;99.90;;;;;;4972962;28;20203;-65
2023/06/21 07:22:35;;;;;;;12.47;10.60;;;27.40;99.90;;;;;;4973278;28;20176;-65
2023/06/21 07:25:01;;;;;;;11.07;9.73;;;27.60;99.90;;;;;;4971456;28;20446;-65
2023/06/21 07:27:27;;;;;;;10.90;10.00;;;27.90;99.90;;;;;;4973167;28;20673;-65
2023/06/21 07:29:53;;;;;;;12.40;11.40;;;28.30;99.90;;;;;;4972882;28;20314;-65
2023/06/21 07:32:18;;;;;;;12.30;10.67;;;28.70;99.90;;;;;;4971607;28;20973;-65
2023/06/21 07:34:44;;;;;;;10.83;9.73;;;28.10;99.90;;;;;;4973162;28;20189;-65
2023/06/21 07:37:09;;;;;;;8.93;8.23;;;28.00;99.90;;;;;;4972100;28;20275;-65
2023/06/21 07:39:35;;;;;;;8.50;7.80;;;27.90;99.90;;;;;;4972579;28;20226;-65
2023/06/21 07:42:04;;;;;;;8.10;7.30;;;27.80;99.90;;;;;;4973070;28;20176;-65
2023/06/21 07:44:31;;;;;;;9.53;8.63;;;27.50;99.90;;;;;;4973233;28;20188;-65
2023/06/21 07:46:56;;;;;;;10.50;8.70;;;27.40;99.90;;;;;;4973027;28;20428;-65
2023/06/21 07:49:22;;;;;;;8.50;7.70;;;27.20;99.90;;;;;;4972716;28;20451;-65
2023/06/21 07:51:47;;;;;;;9.23;8.33;;;27.10;99.90;;;;;;4970533;28;20622;-65
2023/06/21 07:54:13;;;;;;;8.30;7.60;;;27.10;99.90;;;;;;4959519;28;20196;-65
2023/06/21 07:56:39;;;;;;;8.10;7.40;;;27.00;99.90;;;;;;4958088;28;20196;-65
2023/06/21 07:59:05;;;;;;;9.97;8.17;;;27.00;99.90;;;;;;4972572;28;20271;-65
2023/06/21 08:01:30;;;;;;;8.97;8.13;;;26.90;99.90;;;;;;4972917;28;21057;-65
2023/06/21 08:03:59;;;;;;;8.93;8.23;;;26.90;99.90;;;;;;4975870;28;20183;-65
2023/06/21 08:06:25;;;;;;;7.60;6.90;;;26.90;99.90;;;;;;4969508;28;20188;-65
2023/06/21 08:08:51;;;;;;;7.97;7.27;;;26.90;99.90;;;;;;4976184;28;20493;-65
2023/06/21 08:11:16;;;;;;;8.20;7.40;;;26.80;99.90;;;;;;4976854;28;20262;-65
2023/06/21 08:13:42;;;;;;;8.93;8.23;;;26.70;99.90;;;;;;4976541;28;20184;-65
2023/06/21 08:16:07;;;;;;;10.07;8.70;;;26.60;99.90;;;;;;4976526;28;20183;-65
2023/06/21 08:18:34;;;;;;;9.87;9.07;;;26.20;99.90;;;;;;4973896;28;20215;-65
2023/06/21 08:21:00;;;;;;;10.27;9.10;;;25.80;99.90;;;;;;4976226;28;20286;-65
2023/06/21 08:23:25;;;;;;;10.53;9.40;;;25.50;99.90;;;;;;4976317;28;20524;-65
2023/06/21 08:25:51;;;;;;;8.77;8.07;;;25.20;99.90;;;;;;4976369;28;20187;-65
2023/06/21 08:28:16;;;;;;;9.50;8.10;;;25.10;99.90;;;;;;4976001;28;20232;-65
2023/06/21 08:30:42;;;;;;;10.50;9.57;;;25.10;99.90;;;;;;4976225;28;20196;-65
2023/06/21 08:33:07;;;;;;;10.57;9.57;;;25.00;99.90;;;;;;4971221;28;20192;-65
2023/06/21 08:35:33;;;;;;;9.33;8.43;;;25.00;99.90;;;;;;4970398;28;20221;-65
2023/06/21 08:37:59;;;;;;;8.63;7.73;;;25.00;99.90;;;;;;4975840;28;20407;-65
2023/06/21 08:40:26;;;;;;;10.03;8.47;;;24.90;99.90;;;;;;4975906;28;20197;-65
2023/06/21 08:42:55;;;;;;;7.47;6.97;;;25.00;99.90;;;;;;4976138;28;20430;-65
2023/06/21 08:45:21;;;;;;;8.30;7.60;;;25.00;99.90;;;;;;4974898;28;20420;-65
2023/06/21 08:47:48;;;;;;;9.00;8.10;;;24.90;99.90;;;;;;4969443;28;20829;-65
2023/06/21 08:50:17;;;;;;;9.23;7.77;;;24.70;99.90;;;;;;4975653;28;20524;-65
2023/06/21 08:52:45;;;;;;;8.43;7.73;;;24.50;99.90;;;;;;4975991;28;20431;-65
2023/06/21 08:55:13;;;;;;;10.03;9.03;;;24.30;99.90;;;;;;4975879;28;20502;-65
2023/06/21 08:57:44;;;;;;;9.00;8.30;;;23.90;99.90;;;;;;4975791;28;20427;-65
2023/06/21 09:00:12;;;;;;;9.27;8.30;;;23.60;99.90;;;;;;4967990;28;20464;-65
2023/06/21 09:03:17;;;;;;;9.67;8.77;;;23.20;99.90;;;;;;4968134;28;20518;-65
2023/06/21 09:05:59;;;;;;;9.57;8.63;;;22.70;99.90;;;;;;4975644;28;20829;-65
2023/06/21 09:08:24;;;;;;;10.80;9.90;;;22.20;99.90;;;;;;4975342;28;20424;-65
2023/06/21 09:10:52;;;;;;;13.77;10.10;;;22.00;99.90;;;;;;4975240;28;20998;-65
2023/06/21 09:13:23;;;;;;;10.47;8.70;;;21.90;99.90;;;;;;4970004;28;20577;-65
2023/06/21 09:15:50;;;;;;;13.23;9.90;;;21.70;99.90;;;;;;4974551;28;20427;-65
2023/06/21 09:18:16;;;;;;;10.93;9.83;;;21.60;99.90;;;;;;4975140;28;20890;-65
2023/06/21 09:20:47;;;;;;;12.80;11.63;;;21.60;99.90;;;;;;4975267;28;20514;-65
2023/06/21 09:23:12;;;;;;;12.43;11.20;;;21.60;99.90;;;;;;4975620;28;20638;-65
2023/06/21 09:25:38;;;;;;;12.03;10.93;;;21.50;99.90;;;;;;4975228;28;20429;-64
2023/06/21 09:28:04;;;;;;;15.73;12.43;;;21.50;99.90;;;;;;4970320;28;20195;-64
2023/06/21 09:30:29;;;;;;;14.70;10.80;;;21.40;99.90;;;;;;4974917;28;20291;-65
2023/06/21 09:32:56;;;;;;;15.40;12.60;;;21.30;99.90;;;;;;4972207;28;20271;-65
2023/06/21 09:35:22;;;;;;;13.87;12.47;;;21.30;99.90;;;;;;4975085;28;20555;-65
2023/06/21 09:37:47;;;;;;;14.40;13.10;;;21.20;99.90;;;;;;4974986;28;20430;-65
2023/06/21 09:40:13;;;;;;;15.43;13.87;;;21.10;99.90;;;;;;4973721;28;20860;-65
2023/06/21 09:42:44;;;;;;;14.23;12.93;;;21.00;99.90;;;;;;4974945;28;20179;-65
2023/06/21 09:45:11;;;;;;;14.83;13.33;;;21.00;99.90;;;;;;4974990;28;20215;-65
2023/06/21 09:47:39;;;;;;;17.13;13.40;;;20.90;99.90;;;;;;4974930;28;20408;-65
2023/06/21 09:50:08;;;;;;;15.63;13.90;;;21.00;99.90;;;;;;4974507;28;20523;-65
2023/06/21 09:52:33;;;;;;;18.60;16.33;;;20.90;99.90;;;;;;4974694;28;20844;-65
2023/06/21 09:54:59;;;;;;;17.43;15.63;;;20.90;99.90;;;;;;4964867;28;20440;-65
2023/06/21 09:57:28;;;;;;;18.10;16.17;;;20.80;99.90;;;;;;4973349;28;20548;-65
2023/06/21 09:59:54;;;;;;;20.50;17.13;;;20.80;99.90;;;;;;4974256;28;20501;-65
2023/06/21 10:02:19;;;;;;;18.30;15.80;;;20.80;99.90;;;;;;4974686;28;20463;-65
2023/06/21 10:04:45;;;;;;;19.13;17.27;;;20.80;99.90;;;;;;4974540;28;20168;-65
2023/06/21 10:07:14;;;;;;;20.70;18.53;;;20.70;99.90;;;;;;4973031;28;20184;-65
2023/06/21 10:09:40;;;;;;;28.20;19.37;;;20.60;99.90;;;;;;4971894;28;20224;-64
2023/06/21 10:12:09;;;;;;;21.90;19.97;;;20.60;99.90;;;;;;4974457;28;20432;-65
2023/06/21 10:14:35;;;;;;;21.37;18.47;;;20.50;99.90;;;;;;4974642;28;20419;-65
2023/06/21 10:17:02;;;;;;;22.77;19.23;;;20.50;99.90;;;;;;4974423;28;20987;-64
2023/06/21 10:19:31;;;;;;;20.23;18.23;;;20.40;99.90;;;;;;4973763;28;20211;-64
2023/06/21 10:22:06;;;;;;;23.83;20.10;;;20.40;99.90;;;;;;4970112;28;20502;-65
2023/06/21 10:24:39;;;;;;;19.20;17.50;;;20.40;99.90;;;;;;4974156;28;20427;-65
2023/06/21 10:27:08;;;;;;;20.07;17.77;;;20.40;99.90;;;;;;4974024;28;20472;-65
2023/06/21 10:29:34;;;;;;;22.17;20.03;;;20.50;99.90;;;;;;4973868;28;20863;-65
2023/06/21 10:32:01;;;;;;;23.73;19.47;;;20.60;99.90;;;;;;4973974;28;20948;-65
2023/06/21 10:34:33;;;;;;;19.23;17.63;;;20.60;99.90;;;;;;4972132;28;20420;-65
2023/06/21 10:37:08;;;;;;;21.10;19.07;;;20.70;99.90;;;;;;4962059;28;20436;-65
2023/06/21 10:39:34;;;;;;;20.77;18.80;;;20.70;99.90;;;;;;4973516;28;20463;-64
2023/06/21 10:42:01;;;;;;;20.33;18.40;;;20.80;99.90;;;;;;4973891;28;20940;-65
2023/06/21 10:44:28;;;;;;;21.63;19.20;;;21.00;99.90;;;;;;4973882;28;20168;-65
2023/06/21 10:46:55;;;;;;;17.03;15.40;;;21.10;99.90;;;;;;4973753;28;20423;-65
2023/06/21 10:49:21;;;;;;;16.77;14.13;;;21.20;99.90;;;;;;4966180;28;20829;-65
2023/06/21 10:51:48;;;;;;;16.00;14.47;;;21.20;99.90;;;;;;4970403;28;20439;-65
2023/06/21 10:54:15;;;;;;;22.97;20.10;;;21.40;99.90;;;;;;4973652;28;20183;-65
2023/06/21 10:56:41;;;;;;;14.83;13.40;;;21.60;99.90;;;;;;4973710;28;20424;-65
2023/06/21 10:59:08;;;;;;;17.40;15.80;;;21.90;99.90;;;;;;4973076;28;20468;-65
2023/06/21 11:01:35;;;;;;;15.23;13.73;;;22.20;99.90;;;;;;4972603;28;20423;-65
2023/06/21 11:04:00;;;;;;;13.27;12.07;;;22.50;99.90;;;;;;4969001;28;20444;-65
2023/06/21 11:06:33;;;;;;;15.10;13.60;;;22.70;99.90;;;;;;4973611;28;20416;-65
2023/06/21 11:09:10;;;;;;;12.57;11.47;;;23.00;99.90;;;;;;4972958;28;20168;-65
2023/06/21 11:11:37;;;;;;;12.30;11.30;;;23.30;99.90;;;;;;4996548;23;20540;-64
2023/06/21 11:14:03;;;;;;;11.60;10.60;;;23.60;99.90;;;;;;4973375;28;20912;-65
2023/06/21 11:16:32;;;;;;;11.97;10.47;;;23.90;99.90;;;;;;4972501;28;20432;-64
2023/06/21 11:19:10;;;;;;;12.07;10.87;;;24.50;99.90;;;;;;4972921;28;20528;-64
2023/06/21 11:21:41;;;;;;;11.90;11.00;;;25.00;99.90;;;;;;4973337;28;20468;-65
2023/06/21 11:24:11;;;;;;;11.50;10.50;;;25.80;99.90;;;;;;4973367;28;20471;-64
2023/06/21 11:27:03;;;;;;;11.83;10.63;;;25.80;99.90;;;;;;4973291;28;20922;-64
2023/06/21 11:29:39;;;;;;;12.63;10.80;;;26.70;99.90;;;;;;4963712;28;20447;-65
2023/06/21 11:32:13;;;;;;;11.50;10.03;;;26.60;99.90;;;;;;4961878;28;20466;-64
2023/06/21 11:34:53;;;;;;;10.67;9.33;;;27.30;99.90;;;;;;4959557;28;20813;-64
2023/06/21 11:37:42;;;;;;;10.80;9.93;;;28.80;99.90;;;;;;4971240;28;20435;-65
2023/06/21 11:40:09;;;;;;;10.10;9.20;;;29.90;99.90;;;;;;4976950;28;20538;-65
2023/06/21 11:42:45;;;;;;;11.43;9.63;;;31.30;99.90;;;;;;4977182;28;20502;-63
2023/06/21 11:45:35;;;;;;;9.93;9.13;;;32.20;99.90;;;;;;4973546;28;20842;-63
2023/06/21 11:48:08;;;;;;;9.80;8.90;;;33.80;99.90;;;;;;4968202;28;20435;-63
2023/06/21 11:50:41;;;;;;;12.10;11.20;;;34.60;99.00;;;;;;4968694;28;20466;-63
2023/06/21 11:53:40;;;;;;;9.87;9.23;;;35.00;95.50;;;;;;4975704;28;20503;-63
2023/06/21 11:56:06;;;;;;;11.30;10.47;;;35.20;94.00;;;;;;4981482;28;20804;-63
2023/06/21 11:58:31;;;;;;;9.53;8.73;;;35.40;92.70;;;;;;4976519;28;20454;-64
2023/06/21 12:00:57;;;;;;;10.50;9.50;;;35.90;91.70;;;;;;4972778;28;20199;-65
2023/06/21 12:03:26;;;;;;;9.63;8.73;;;35.70;90.10;;;;;;4966991;28;20263;-65
2023/06/21 12:05:53;;;;;;;9.97;9.13;;;35.30;88.70;;;;;;4976767;28;20535;-65
2023/06/21 12:08:22;;;;;;;11.77;10.57;;;34.50;90.30;;;;;;4976431;28;20947;-65
2023/06/21 12:10:48;;;;;;;10.53;9.83;;;33.50;92.00;;;;;;4976506;28;20960;-65
2023/06/21 12:13:16;;;;;;;10.20;9.40;;;33.80;92.30;;;;;;4976679;28;20423;-65
2023/06/21 12:15:47;;;;;;;10.37;9.57;;;34.40;92.10;;;;;;4976649;28;20472;-65
2023/06/21 12:18:14;;;;;;;10.63;9.73;;;34.60;89.70;;;;;;4971792;28;20467;-64
2023/06/21 12:20:40;;;;;;;9.90;9.00;;;34.00;90.70;;;;;;4969009;28;21069;-65
2023/06/21 12:23:07;;;;;;;10.10;9.20;;;32.90;92.00;;;;;;4976513;28;20423;-65
2023/06/21 12:25:43;;;;;;;9.07;8.30;;;32.00;93.30;;;;;;4976394;28;20427;-64
2023/06/21 12:28:09;;;;;;;10.27;9.37;;;31.40;97.10;;;;;;4976313;28;20430;-64
2023/06/21 12:30:55;;;;;;;9.90;9.10;;;31.60;97.20;;;;;;4976302;28;20458;-65
2023/06/21 12:33:24;;;;;;;9.90;9.20;;;31.90;95.90;;;;;;4970845;28;20440;-64